Time;durP1;ratioP1;P1;durP2;ratioP2;P2;SDS_P1;SDS_P2;PMS_P1;PMS_P2;Temp;Humidity;BMP_temperature;BMP_pressure;BME280_temperature;BME280_humidity;BME280_pressure;Samples;Min_cycle;Max_cycle;Signal;HPM_P1;HPM_P2
2022/11/28 00:04:13;;;;;;;3.33;2.53;;;;;;;16.97;54.76;96419.94;10430191;28;20657;-31
2022/11/28 00:09:14;;;;;;;3.53;2.60;;;;;;;16.94;54.90;96414.91;10436004;28;20451;-30
2022/11/28 00:14:17;;;;;;;3.40;2.47;;;;;;;16.94;55.35;96404.78;10434736;28;20079;-30
2022/11/28 18:02:03;;;;;;;8.93;4.68;;;;;;;17.43;59.10;96224.31;12743788;22;1287291;-30
2022/11/28 18:57:56;;;;;;;10.23;5.70;;;;;;;17.64;58.72;96255.44;10585737;27;20462;-28
2022/11/28 19:02:56;;;;;;;20.20;6.60;;;;;;;17.49;59.08;96259.72;10560499;28;20084;-28
2022/11/28 19:07:56;;;;;;;12.90;6.83;;;;;;;17.37;59.42;96257.22;10561512;28;20050;-27
2022/11/28 19:12:57;;;;;;;16.67;7.25;;;;;;;17.38;60.26;96271.56;10562102;28;20277;-28
2022/11/28 19:17:57;;;;;;;16.97;7.37;;;;;;;17.33;59.88;96260.59;10578656;27;20094;-27
2022/11/28 19:22:58;;;;;;;17.70;6.60;;;;;;;17.28;60.43;96273.25;10586336;27;20027;-28
2022/11/28 19:27:58;;;;;;;12.23;6.73;;;;;;;17.32;59.84;96281.69;10596713;27;20035;-27
2022/11/28 19:32:59;;;;;;;16.02;6.45;;;;;;;17.33;59.77;96280.84;10595664;27;20116;-26
2022/11/28 19:37:59;;;;;;;13.73;6.87;;;;;;;17.38;59.62;96276.63;10613201;27;20102;-27
2022/11/28 19:42:59;;;;;;;14.80;6.90;;;;;;;17.39;59.35;96285.88;10572671;28;20612;-27
2022/11/28 19:48:01;;;;;;;18.35;7.22;;;;;;;17.40;60.00;96285.06;10589578;28;20090;-28
2022/11/28 19:53:01;;;;;;;16.05;6.97;;;;;;;17.37;59.88;96292.66;10609549;27;20023;-27
2022/11/28 19:58:02;;;;;;;18.13;7.18;;;;;;;17.38;60.07;96287.59;10568180;27;20031;-27
2022/11/28 20:03:02;;;;;;;19.17;7.30;;;;;;;17.32;60.21;96276.63;10557222;27;20035;-27
2022/11/28 20:08:04;;;;;;;15.23;7.32;;;;;;;17.34;61.31;96295.97;10573318;27;20043;-27
2022/11/28 20:13:06;;;;;;;13.00;6.72;;;;;;;17.30;59.93;96290.94;10563356;27;20568;-27
2022/11/28 20:18:06;;;;;;;15.05;6.35;;;;;;;17.37;60.62;96300.25;10545665;27;20035;-28
2022/11/28 20:23:07;;;;;;;22.08;7.43;;;;;;;17.37;60.43;96301.09;10573881;27;20028;-28
2022/11/28 20:28:08;;;;;;;17.02;7.55;;;;;;;17.33;60.78;96308.66;10558664;27;20044;-28
2022/11/28 20:33:08;;;;;;;13.98;6.85;;;;;;;17.36;60.78;96313.75;10557253;27;20036;-28
2022/11/28 21:03:01;;;;;;;17.60;7.63;;;;;;;17.72;59.17;96316.16;10541085;27;20129;-28
2022/11/28 21:08:01;;;;;;;12.87;6.07;;;;;;;17.74;59.50;96322.09;10531238;28;20021;-28
2022/11/28 21:13:02;;;;;;;13.27;6.70;;;;;;;17.62;59.49;96322.09;10534627;28;20112;-28
2022/11/28 21:18:03;;;;;;;8.63;5.72;;;;;;;17.54;60.69;96328.88;10543555;28;20370;-29
2022/11/28 21:23:03;;;;;;;13.55;6.60;;;;;;;17.49;60.18;96315.41;10540039;28;20024;-28
2022/11/28 21:28:03;;;;;;;9.80;5.93;;;;;;;17.31;60.21;96302.78;10518944;28;20027;-29
2022/11/28 21:33:04;;;;;;;10.82;6.40;;;;;;;17.47;60.45;96322.13;10520707;28;20032;-31
2022/11/28 21:38:06;;;;;;;17.63;7.13;;;;;;;17.47;60.61;96322.13;10546690;28;20032;-29
2022/11/28 21:43:06;;;;;;;11.38;5.57;;;;;;;17.37;60.04;96310.34;10538968;28;20178;-29
2022/11/28 21:48:07;;;;;;;12.50;6.30;;;;;;;17.38;61.36;96329.75;10540490;28;20028;-29
2022/11/28 21:53:07;;;;;;;9.50;6.33;;;;;;;17.37;61.17;96330.59;10518864;28;20036;-29
2022/11/28 21:58:08;;;;;;;11.33;5.80;;;;;;;17.27;61.87;96329.75;10540652;28;20766;-30
2022/11/28 22:03:08;;;;;;;11.93;5.90;;;;;;;17.29;61.21;96338.19;10477531;28;20430;-31
2022/11/28 22:08:09;;;;;;;10.27;5.28;;;;;;;17.29;61.23;96337.31;10473754;28;20041;-30
2022/11/28 22:13:10;;;;;;;10.65;5.55;;;;;;;17.31;61.29;96339.00;10494080;28;20039;-30
2022/11/28 22:18:11;;;;;;;11.40;5.45;;;;;;;17.30;61.24;96341.53;10476456;28;20031;-30
2022/11/28 22:23:12;;;;;;;13.90;5.63;;;;;;;17.36;60.62;96342.44;10501081;28;20426;-29
2022/11/28 22:28:13;;;;;;;11.82;5.95;;;;;;;17.35;60.76;96342.38;10512185;28;20770;-29
2022/11/28 22:33:14;;;;;;;9.63;5.35;;;;;;;17.35;61.25;96344.91;10478252;28;20374;-29
2022/11/28 22:38:16;;;;;;;12.27;5.68;;;;;;;17.33;61.35;96346.63;10478264;28;20032;-29
2022/11/28 22:43:16;;;;;;;9.55;5.15;;;;;;;17.32;61.33;96343.22;10490861;28;20043;-29
2022/11/28 22:48:17;;;;;;;14.43;5.70;;;;;;;17.31;61.47;96350.84;10492589;28;20042;-29
2022/11/28 22:53:17;;;;;;;8.80;5.80;;;;;;;17.34;61.35;96350.81;10475090;28;20483;-29
2022/11/28 22:58:17;;;;;;;10.47;4.93;;;;;;;17.37;61.92;96350.84;10472627;28;20266;-29
2022/11/28 23:03:18;;;;;;;13.23;5.22;;;;;;;17.33;61.63;96354.22;10497181;28;20081;-30
2022/11/28 23:08:18;;;;;;;11.67;4.87;;;;;;;17.35;61.33;96358.44;10533943;28;20024;-29
2022/11/28 23:13:19;;;;;;;7.95;4.88;;;;;;;17.28;61.72;96366.00;10483690;28;20587;-29
2022/11/28 23:18:19;;;;;;;8.80;4.83;;;;;;;17.29;61.76;96372.75;10491125;28;20025;-29
2022/11/28 23:23:20;;;;;;;11.98;5.43;;;;;;;17.26;61.83;96372.75;10492061;28;20035;-29
2022/11/28 23:28:20;;;;;;;9.67;4.80;;;;;;;17.27;61.98;96364.31;10490641;28;20033;-30
2022/11/28 23:33:20;;;;;;;9.80;4.97;;;;;;;17.27;61.87;96374.44;10490932;28;20302;-29
2022/11/28 23:38:21;;;;;;;10.40;5.40;;;;;;;17.26;62.00;96372.75;10472937;28;20832;-29
2022/11/28 23:43:21;;;;;;;9.37;4.43;;;;;;;17.22;61.63;96381.19;10491314;28;20291;-30
2022/11/28 23:48:22;;;;;;;12.43;5.20;;;;;;;17.24;61.86;96384.56;10490754;28;20305;-30
2022/11/28 23:53:22;;;;;;;6.93;3.97;;;;;;;17.25;62.11;96381.19;10490899;28;20329;-28
2022/11/28 23:58:23;;;;;;;12.38;4.78;;;;;;;17.23;62.09;96377.84;10489723;28;20390;-31
